sensor_id;sensor_type;location;lat;lon;timestamp;pressure;altitude;pressure_sealevel;temperature;humidity
32330;BME280;18807;52.434;13.238;2023-02-18T00:04:44;101137.47;;;7.30;94.96
32330;BME280;18807;52.434;13.238;2023-02-18T00:12:18;101142.59;;;7.24;95.55
32330;BME280;18807;52.434;13.238;2023-02-18T00:19:53;101145.22;;;7.24;95.00
32330;BME280;18807;52.434;13.238;2023-02-18T00:27:28;101148.47;;;7.15;94.71
32330;BME280;18807;52.434;13.238;2023-02-18T00:35:21;101163.34;;;7.10;94.22
32330;BME280;18807;52.434;13.238;2023-02-18T00:42:55;101159.44;;;7.01;95.49
32330;BME280;18807;52.434;13.238;2023-02-18T00:50:30;101179.66;;;6.96;95.22
32330;BME280;18807;52.434;13.238;2023-02-18T00:58:04;101177.59;;;6.89;94.98
32330;BME280;18807;52.434;13.238;2023-02-18T01:05:40;101178.28;;;6.83;95.24
32330;BME280;18807;52.434;13.238;2023-02-18T01:13:15;101170.84;;;6.73;96.33
32330;BME280;18807;52.434;13.238;2023-02-18T01:20:51;101178.75;;;6.72;96.95
32330;BME280;18807;52.434;13.238;2023-02-18T01:28:25;101168.84;;;6.68;97.17
32330;BME280;18807;52.434;13.238;2023-02-18T01:36:00;101155.47;;;6.65;97.94
32330;BME280;18807;52.434;13.238;2023-02-18T01:43:36;101165.97;;;6.62;98.83
32330;BME280;18807;52.434;13.238;2023-02-18T01:51:15;101169.41;;;6.59;99.37
32330;BME280;18807;52.434;13.238;2023-02-18T01:58:52;101174.66;;;6.58;99.31
32330;BME280;18807;52.434;13.238;2023-02-18T02:06:28;101175.47;;;6.55;99.72
32330;BME280;18807;52.434;13.238;2023-02-18T02:14:14;101177.09;;;6.52;99.72
32330;BME280;18807;52.434;13.238;2023-02-18T02:22:21;101173.44;;;6.48;99.96
32330;BME280;18807;52.434;13.238;2023-02-18T02:30:33;101185.91;;;6.51;99.54
32330;BME280;18807;52.434;13.238;2023-02-18T02:38:18;101186.78;;;6.50;98.94
32330;BME280;18807;52.434;13.238;2023-02-18T02:46:00;101167.22;;;6.48;97.46
32330;BME280;18807;52.434;13.238;2023-02-18T02:53:39;101175.13;;;6.46;96.92
32330;BME280;18807;52.434;13.238;2023-02-18T03:01:21;101189.31;;;6.47;95.94
32330;BME280;18807;52.434;13.238;2023-02-18T03:09:05;101168.72;;;6.41;95.33
32330;BME280;18807;52.434;13.238;2023-02-18T03:16:46;101177.47;;;6.39;94.27
32330;BME280;18807;52.434;13.238;2023-02-18T03:24:26;101189.78;;;6.37;93.92
32330;BME280;18807;52.434;13.238;2023-02-18T03:32:04;101181.69;;;6.34;93.68
32330;BME280;18807;52.434;13.238;2023-02-18T03:39:45;101192.31;;;6.34;93.03
32330;BME280;18807;52.434;13.238;2023-02-18T03:47:21;101178.16;;;6.33;92.15
32330;BME280;18807;52.434;13.238;2023-02-18T03:54:57;101196.63;;;6.30;92.19
32330;BME280;18807;52.434;13.238;2023-02-18T04:02:32;101181.41;;;6.26;92.95
32330;BME280;18807;52.434;13.238;2023-02-18T04:10:08;101190.94;;;6.21;92.55
32330;BME280;18807;52.434;13.238;2023-02-18T04:17:42;101197.06;;;6.19;93.43
32330;BME280;18807;52.434;13.238;2023-02-18T04:25:18;101188.84;;;6.13;93.84
32330;BME280;18807;52.434;13.238;2023-02-18T04:32:52;101180.84;;;6.11;93.76
32330;BME280;18807;52.434;13.238;2023-02-18T04:40:28;101193.13;;;6.09;94.49
32330;BME280;18807;52.434;13.238;2023-02-18T04:48:03;101194.09;;;6.11;94.93
32330;BME280;18807;52.434;13.238;2023-02-18T04:55:38;101191.69;;;6.17;94.26
32330;BME280;18807;52.434;13.238;2023-02-18T05:03:12;101199.91;;;6.25;93.71
32330;BME280;18807;52.434;13.238;2023-02-18T05:10:48;101191.25;;;6.29;93.74
32330;BME280;18807;52.434;13.238;2023-02-18T05:18:22;101194.97;;;6.34;93.11
32330;BME280;18807;52.434;13.238;2023-02-18T05:25:58;101185.31;;;6.36;93.46
32330;BME280;18807;52.434;13.238;2023-02-18T05:33:32;101183.81;;;6.42;92.01
32330;BME280;18807;52.434;13.238;2023-02-18T05:41:08;101183.88;;;6.44;92.16
32330;BME280;18807;52.434;13.238;2023-02-18T05:48:42;101166.19;;;6.44;92.57
32330;BME280;18807;52.434;13.238;2023-02-18T05:56:17;101170.75;;;6.47;92.03
32330;BME280;18807;52.434;13.238;2023-02-18T06:03:51;101175.19;;;6.48;92.56
32330;BME280;18807;52.434;13.238;2023-02-18T06:11:44;101169.88;;;6.48;93.11
32330;BME280;18807;52.434;13.238;2023-02-18T06:19:18;101171.03;;;6.54;93.00
32330;BME280;18807;52.434;13.238;2023-02-18T06:26:54;101168.50;;;6.57;92.47
32330;BME280;18807;52.434;13.238;2023-02-18T06:34:28;101165.03;;;6.60;93.18
32330;BME280;18807;52.434;13.238;2023-02-18T06:42:04;101173.09;;;6.63;92.29
32330;BME280;18807;52.434;13.238;2023-02-18T06:49:38;101165.47;;;6.72;91.27
32330;BME280;18807;52.434;13.238;2023-02-18T06:57:13;101152.50;;;6.79;90.59
32330;BME280;18807;52.434;13.238;2023-02-18T07:04:47;101165.25;;;6.89;89.43
32330;BME280;18807;52.434;13.238;2023-02-18T07:12:23;101166.41;;;6.97;89.92
32330;BME280;18807;52.434;13.238;2023-02-18T07:19:57;101165.50;;;6.97;94.35
32330;BME280;18807;52.434;13.238;2023-02-18T07:27:34;101162.69;;;6.92;96.72
32330;BME280;18807;52.434;13.238;2023-02-18T07:35:09;101159.75;;;6.85;100.00
32330;BME280;18807;52.434;13.238;2023-02-18T07:42:45;101138.13;;;6.74;100.00
32330;BME280;18807;52.434;13.238;2023-02-18T07:50:18;101125.50;;;6.67;100.00
32330;BME280;18807;52.434;13.238;2023-02-18T07:57:54;101112.84;;;6.60;100.00
32330;BME280;18807;52.434;13.238;2023-02-18T08:05:32;101106.38;;;6.52;100.00
32330;BME280;18807;52.434;13.238;2023-02-18T08:13:08;101096.50;;;6.48;100.00
32330;BME280;18807;52.434;13.238;2023-02-18T08:20:42;101074.25;;;6.45;100.00
32330;BME280;18807;52.434;13.238;2023-02-18T08:28:17;101066.19;;;6.42;100.00
32330;BME280;18807;52.434;13.238;2023-02-18T08:35:53;101047.59;;;6.42;100.00
32330;BME280;18807;52.434;13.238;2023-02-18T08:43:29;101030.13;;;6.47;100.00
32330;BME280;18807;52.434;13.238;2023-02-18T08:51:11;101022.22;;;6.48;100.00
32330;BME280;18807;52.434;13.238;2023-02-18T08:58:47;101021.41;;;6.51;100.00
32330;BME280;18807;52.434;13.238;2023-02-18T09:06:20;101009.06;;;6.51;100.00
32330;BME280;18807;52.434;13.238;2023-02-18T09:13:56;100984.38;;;6.54;100.00
32330;BME280;18807;52.434;13.238;2023-02-18T09:21:30;100962.16;;;6.52;100.00
32330;BME280;18807;52.434;13.238;2023-02-18T09:29:06;100963.09;;;6.52;100.00
32330;BME280;18807;52.434;13.238;2023-02-18T09:36:41;100941.03;;;6.55;100.00
32330;BME280;18807;52.434;13.238;2023-02-18T09:44:20;100927.94;;;6.59;100.00
32330;BME280;18807;52.434;13.238;2023-02-18T09:51:56;100908.59;;;6.63;100.00
32330;BME280;18807;52.434;13.238;2023-02-18T09:59:36;100880.28;;;6.62;100.00
32330;BME280;18807;52.434;13.238;2023-02-18T10:07:17;100866.25;;;6.66;100.00
32330;BME280;18807;52.434;13.238;2023-02-18T10:14:55;100864.53;;;6.68;100.00
32330;BME280;18807;52.434;13.238;2023-02-18T10:22:30;100838.91;;;6.69;100.00
32330;BME280;18807;52.434;13.238;2023-02-18T10:30:21;100815.13;;;6.72;100.00
32330;BME280;18807;52.434;13.238;2023-02-18T10:38:02;100789.50;;;6.74;100.00
32330;BME280;18807;52.434;13.238;2023-02-18T10:46:12;100758.75;;;6.80;100.00
32330;BME280;18807;52.434;13.238;2023-02-18T10:53:51;100733.13;;;6.81;100.00
32330;BME280;18807;52.434;13.238;2023-02-18T11:01:28;100714.63;;;6.84;100.00
32330;BME280;18807;52.434;13.238;2023-02-18T11:09:03;100679.34;;;6.88;100.00
32330;BME280;18807;52.434;13.238;2023-02-18T11:16:42;100651.13;;;6.91;100.00
32330;BME280;18807;52.434;13.238;2023-02-18T11:24:19;100626.47;;;6.95;100.00
32330;BME280;18807;52.434;13.238;2023-02-18T11:31:56;100613.31;;;7.00;100.00
32330;BME280;18807;52.434;13.238;2023-02-18T11:39:30;100594.97;;;7.09;100.00
32330;BME280;18807;52.434;13.238;2023-02-18T11:47:19;100578.34;;;7.17;100.00
32330;BME280;18807;52.434;13.238;2023-02-18T11:55:01;100560.00;;;7.26;100.00
32330;BME280;18807;52.434;13.238;2023-02-18T12:02:39;100522.19;;;7.38;100.00
32330;BME280;18807;52.434;13.238;2023-02-18T12:10:21;100501.50;;;7.62;100.00
32330;BME280;18807;52.434;13.238;2023-02-18T12:18:14;100491.38;;;7.84;100.00
32330;BME280;18807;52.434;13.238;2023-02-18T12:25:56;100465.47;;;8.19;100.00
32330;BME280;18807;52.434;13.238;2023-02-18T12:33:44;100463.91;;;8.75;100.00
32330;BME280;18807;52.434;13.238;2023-02-18T12:41:33;100448.44;;;9.05;100.00
32330;BME280;18807;52.434;13.238;2023-02-18T12:57:26;100435.03;;;9.61;100.00
32330;BME280;18807;52.434;13.238;2023-02-18T13:05:10;100413.84;;;9.72;100.00
32330;BME280;18807;52.434;13.238;2023-02-18T13:12:55;100396.25;;;9.84;100.00
32330;BME280;18807;52.434;13.238;2023-02-18T13:20:36;100390.13;;;9.94;100.00
32330;BME280;18807;52.434;13.238;2023-02-18T13:28:34;100392.13;;;10.12;100.00
32330;BME280;18807;52.434;13.238;2023-02-18T13:36:30;100387.75;;;10.17;100.00
32330;BME280;18807;52.434;13.238;2023-02-18T13:44:07;100394.03;;;10.22;100.00
32330;BME280;18807;52.434;13.238;2023-02-18T13:51:44;100384.25;;;10.24;100.00
32330;BME280;18807;52.434;13.238;2023-02-18T13:59:24;100393.13;;;10.20;100.00
32330;BME280;18807;52.434;13.238;2023-02-18T14:23:54;100400.13;;;10.10;100.00
32330;BME280;18807;52.434;13.238;2023-02-18T14:31:41;100412.56;;;10.08;100.00
32330;BME280;18807;52.434;13.238;2023-02-18T14:39:32;100407.25;;;10.10;100.00
32330;BME280;18807;52.434;13.238;2023-02-18T14:47:23;100409.91;;;10.08;100.00
32330;BME280;18807;52.434;13.238;2023-02-18T14:55:02;100405.34;;;10.03;100.00
32330;BME280;18807;52.434;13.238;2023-02-18T15:02:37;100406.22;;;10.02;100.00
32330;BME280;18807;52.434;13.238;2023-02-18T15:10:16;100415.13;;;10.02;100.00
32330;BME280;18807;52.434;13.238;2023-02-18T15:17:50;100430.22;;;10.00;100.00
32330;BME280;18807;52.434;13.238;2023-02-18T15:25:48;100451.63;;;10.05;100.00
32330;BME280;18807;52.434;13.238;2023-02-18T15:33:23;100458.72;;;10.04;100.00
32330;BME280;18807;52.434;13.238;2023-02-18T15:40:59;100475.56;;;10.00;100.00
32330;BME280;18807;52.434;13.238;2023-02-18T15:48:38;100492.41;;;9.95;100.00
32330;BME280;18807;52.434;13.238;2023-02-18T15:56:23;100502.25;;;9.99;100.00
32330;BME280;18807;52.434;13.238;2023-02-18T16:03:58;100512.03;;;10.01;100.00
32330;BME280;18807;52.434;13.238;2023-02-18T16:11:54;100535.97;;;9.95;100.00
32330;BME280;18807;52.434;13.238;2023-02-18T16:19:31;100548.34;;;9.89;100.00
32330;BME280;18807;52.434;13.238;2023-02-18T16:27:14;100556.28;;;9.84;100.00
32330;BME280;18807;52.434;13.238;2023-02-18T16:34:48;100574.97;;;9.86;100.00
32330;BME280;18807;52.434;13.238;2023-02-18T16:42:24;100587.38;;;9.84;100.00
32330;BME280;18807;52.434;13.238;2023-02-18T16:49:58;100588.38;;;9.90;100.00
32330;BME280;18807;52.434;13.238;2023-02-18T16:57:33;100619.50;;;9.91;100.00
32330;BME280;18807;52.434;13.238;2023-02-18T17:05:09;100631.03;;;9.87;100.00
32330;BME280;18807;52.434;13.238;2023-02-18T17:12:59;100657.56;;;9.80;100.00
32330;BME280;18807;52.434;13.238;2023-02-18T17:20:33;100690.28;;;9.68;100.00
32330;BME280;18807;52.434;13.238;2023-02-18T17:28:08;100757.13;;;8.88;100.00
32330;BME280;18807;52.434;13.238;2023-02-18T17:35:43;100778.94;;;8.71;100.00
32330;BME280;18807;52.434;13.238;2023-02-18T17:43:35;100805.59;;;8.35;100.00
32330;BME280;18807;52.434;13.238;2023-02-18T17:51:17;100800.50;;;8.11;100.00
32330;BME280;18807;52.434;13.238;2023-02-18T17:58:56;100822.44;;;8.03;100.00
32330;BME280;18807;52.434;13.238;2023-02-18T18:06:30;100836.53;;;7.99;100.00
32330;BME280;18807;52.434;13.238;2023-02-18T18:14:12;100836.28;;;7.90;100.00
32330;BME280;18807;52.434;13.238;2023-02-18T18:21:46;100850.19;;;7.80;100.00
32330;BME280;18807;52.434;13.238;2023-02-18T18:29:21;100872.25;;;7.77;100.00
32330;BME280;18807;52.434;13.238;2023-02-18T18:36:55;100891.63;;;7.72;100.00
32330;BME280;18807;52.434;13.238;2023-02-18T18:44:31;100908.22;;;7.63;100.00
32330;BME280;18807;52.434;13.238;2023-02-18T18:52:04;100920.31;;;7.54;100.00
32330;BME280;18807;52.434;13.238;2023-02-18T18:59:40;100926.56;;;7.54;100.00
32330;BME280;18807;52.434;13.238;2023-02-18T19:07:14;100935.38;;;7.53;100.00
32330;BME280;18807;52.434;13.238;2023-02-18T19:14:49;100923.84;;;7.53;100.00
32330;BME280;18807;52.434;13.238;2023-02-18T19:22:41;100938.00;;;7.52;100.00
32330;BME280;18807;52.434;13.238;2023-02-18T19:30:18;100941.44;;;7.49;100.00
32330;BME280;18807;52.434;13.238;2023-02-18T19:37:54;100960.81;;;7.45;100.00
32330;BME280;18807;52.434;13.238;2023-02-18T19:45:30;100969.50;;;7.40;100.00
32330;BME280;18807;52.434;13.238;2023-02-18T19:53:04;100967.25;;;7.24;100.00
32330;BME280;18807;52.434;13.238;2023-02-18T20:00:39;100979.53;;;7.20;100.00
32330;BME280;18807;52.434;13.238;2023-02-18T20:08:15;100973.06;;;7.12;100.00
32330;BME280;18807;52.434;13.238;2023-02-18T20:15:50;100970.44;;;7.14;100.00
32330;BME280;18807;52.434;13.238;2023-02-18T20:23:24;100989.91;;;7.13;100.00
32330;BME280;18807;52.434;13.238;2023-02-18T20:31:04;100979.28;;;7.13;100.00
32330;BME280;18807;52.434;13.238;2023-02-18T20:38:38;100980.13;;;7.12;100.00
32330;BME280;18807;52.434;13.238;2023-02-18T20:46:15;100999.56;;;7.11;100.00
32330;BME280;18807;52.434;13.238;2023-02-18T20:53:50;101009.09;;;7.04;100.00
32330;BME280;18807;52.434;13.238;2023-02-18T21:01:26;101013.41;;;7.01;100.00
32330;BME280;18807;52.434;13.238;2023-02-18T21:09:17;101013.00;;;6.89;100.00
32330;BME280;18807;52.434;13.238;2023-02-18T21:16:52;101019.75;;;6.79;100.00
32330;BME280;18807;52.434;13.238;2023-02-18T21:24:26;101028.03;;;6.63;100.00
32330;BME280;18807;52.434;13.238;2023-02-18T21:32:01;101034.94;;;6.58;100.00
32330;BME280;18807;52.434;13.238;2023-02-18T21:39:36;101036.69;;;6.58;100.00
32330;BME280;18807;52.434;13.238;2023-02-18T21:47:11;101042.16;;;6.62;100.00
32330;BME280;18807;52.434;13.238;2023-02-18T21:54:45;101037.00;;;6.67;100.00
32330;BME280;18807;52.434;13.238;2023-02-18T22:02:22;101040.34;;;6.61;100.00
32330;BME280;18807;52.434;13.238;2023-02-18T22:09:57;101046.53;;;6.62;100.00
32330;BME280;18807;52.434;13.238;2023-02-18T22:17:32;101059.63;;;6.56;100.00
32330;BME280;18807;52.434;13.238;2023-02-18T22:25:07;101057.97;;;6.59;100.00
32330;BME280;18807;52.434;13.238;2023-02-18T22:32:42;101070.44;;;6.62;100.00
32330;BME280;18807;52.434;13.238;2023-02-18T22:40:16;101065.81;;;6.56;100.00
32330;BME280;18807;52.434;13.238;2023-02-18T22:47:52;101061.31;;;6.54;100.00
32330;BME280;18807;52.434;13.238;2023-02-18T22:55:26;101048.09;;;6.55;100.00
32330;BME280;18807;52.434;13.238;2023-02-18T23:03:01;101050.69;;;6.54;100.00
32330;BME280;18807;52.434;13.238;2023-02-18T23:10:35;101053.41;;;6.55;100.00
32330;BME280;18807;52.434;13.238;2023-02-18T23:18:11;101052.44;;;6.53;100.00
32330;BME280;18807;52.434;13.238;2023-02-18T23:25:45;101051.34;;;6.47;100.00
32330;BME280;18807;52.434;13.238;2023-02-18T23:33:20;101044.09;;;6.43;100.00
32330;BME280;18807;52.434;13.238;2023-02-18T23:40:54;101044.78;;;6.37;100.00
32330;BME280;18807;52.434;13.238;2023-02-18T23:48:29;101032.28;;;6.33;100.00
32330;BME280;18807;52.434;13.238;2023-02-18T23:56:05;101041.09;;;6.34;100.00
